sensor_id;sensor_type;location;lat;lon;timestamp;P1;durP1;ratioP1;P2;durP2;ratioP2
75005;SDS011;63553;51.814;4.600;2023-06-14T00:02:16;2.70;;;2.50;;
75005;SDS011;63553;51.814;4.600;2023-06-14T00:04:41;5.00;;;2.70;;
75005;SDS011;63553;51.814;4.600;2023-06-14T00:07:08;4.43;;;2.50;;
75005;SDS011;63553;51.814;4.600;2023-06-14T00:09:34;2.70;;;2.50;;
75005;SDS011;63553;51.814;4.600;2023-06-14T00:12:00;2.53;;;2.33;;
75005;SDS011;63553;51.814;4.600;2023-06-14T00:14:25;2.50;;;2.30;;
75005;SDS011;63553;51.814;4.600;2023-06-14T00:16:50;4.13;;;2.70;;
75005;SDS011;63553;51.814;4.600;2023-06-14T00:19:17;3.53;;;2.38;;
75005;SDS011;63553;51.814;4.600;2023-06-14T00:21:44;3.83;;;2.17;;
75005;SDS011;63553;51.814;4.600;2023-06-14T00:24:10;2.40;;;2.13;;
75005;SDS011;63553;51.814;4.600;2023-06-14T00:26:35;2.40;;;2.20;;
75005;SDS011;63553;51.814;4.600;2023-06-14T00:29:01;2.87;;;2.57;;
75005;SDS011;63553;51.814;4.600;2023-06-14T00:31:26;5.10;;;2.53;;
75005;SDS011;63553;51.814;4.600;2023-06-14T00:33:52;4.30;;;3.20;;
75005;SDS011;63553;51.814;4.600;2023-06-14T00:36:17;2.27;;;2.13;;
75005;SDS011;63553;51.814;4.600;2023-06-14T00:38:42;3.30;;;2.43;;
75005;SDS011;63553;51.814;4.600;2023-06-14T00:41:08;4.40;;;2.80;;
75005;SDS011;63553;51.814;4.600;2023-06-14T00:43:33;2.55;;;2.35;;
75005;SDS011;63553;51.814;4.600;2023-06-14T00:45:59;3.22;;;2.88;;
75005;SDS011;63553;51.814;4.600;2023-06-14T00:48:25;3.28;;;2.78;;
75005;SDS011;63553;51.814;4.600;2023-06-14T00:50:50;10.30;;;2.70;;
75005;SDS011;63553;51.814;4.600;2023-06-14T00:53:17;2.72;;;2.47;;
75005;SDS011;63553;51.814;4.600;2023-06-14T00:55:45;5.20;;;3.17;;
75005;SDS011;63553;51.814;4.600;2023-06-14T00:58:11;5.28;;;2.85;;
75005;SDS011;63553;51.814;4.600;2023-06-14T01:00:36;5.60;;;2.60;;
75005;SDS011;63553;51.814;4.600;2023-06-14T01:03:02;7.23;;;2.80;;
75005;SDS011;63553;51.814;4.600;2023-06-14T01:05:28;3.75;;;2.70;;
75005;SDS011;63553;51.814;4.600;2023-06-14T01:11:18;2.58;;;2.35;;
75005;SDS011;63553;51.814;4.600;2023-06-14T01:13:50;4.15;;;2.65;;
75005;SDS011;63553;51.814;4.600;2023-06-14T01:16:18;3.20;;;2.65;;
75005;SDS011;63553;51.814;4.600;2023-06-14T01:18:45;3.80;;;2.72;;
75005;SDS011;63553;51.814;4.600;2023-06-14T01:21:22;3.67;;;2.70;;
75005;SDS011;63553;51.814;4.600;2023-06-14T01:23:49;4.07;;;3.20;;
75005;SDS011;63553;51.814;4.600;2023-06-14T01:26:18;2.65;;;2.45;;
75005;SDS011;63553;51.814;4.600;2023-06-14T01:28:45;4.95;;;2.60;;
75005;SDS011;63553;51.814;4.600;2023-06-14T01:31:13;4.88;;;2.45;;
75005;SDS011;63553;51.814;4.600;2023-06-14T01:33:41;3.15;;;2.65;;
75005;SDS011;63553;51.814;4.600;2023-06-14T01:36:07;4.10;;;2.88;;
75005;SDS011;63553;51.814;4.600;2023-06-14T01:38:34;5.28;;;2.90;;
75005;SDS011;63553;51.814;4.600;2023-06-14T01:41:01;3.30;;;2.70;;
75005;SDS011;63553;51.814;4.600;2023-06-14T01:43:29;7.45;;;2.63;;
75005;SDS011;63553;51.814;4.600;2023-06-14T01:45:56;4.15;;;2.60;;
75005;SDS011;63553;51.814;4.600;2023-06-14T01:48:22;4.25;;;2.80;;
75005;SDS011;63553;51.814;4.600;2023-06-14T01:50:49;3.85;;;2.97;;
75005;SDS011;63553;51.814;4.600;2023-06-14T01:53:15;5.85;;;2.83;;
75005;SDS011;63553;51.814;4.600;2023-06-14T01:55:40;4.28;;;2.65;;
75005;SDS011;63553;51.814;4.600;2023-06-14T01:58:08;4.50;;;2.90;;
75005;SDS011;63553;51.814;4.600;2023-06-14T02:00:35;3.10;;;2.60;;
75005;SDS011;63553;51.814;4.600;2023-06-14T02:03:00;4.40;;;3.15;;
75005;SDS011;63553;51.814;4.600;2023-06-14T02:05:26;4.32;;;2.60;;
75005;SDS011;63553;51.814;4.600;2023-06-14T02:07:51;6.05;;;2.50;;
75005;SDS011;63553;51.814;4.600;2023-06-14T02:10:18;4.45;;;2.60;;
75005;SDS011;63553;51.814;4.600;2023-06-14T02:12:44;3.97;;;2.40;;
75005;SDS011;63553;51.814;4.600;2023-06-14T02:15:09;3.42;;;2.45;;
75005;SDS011;63553;51.814;4.600;2023-06-14T02:17:41;3.35;;;2.50;;
75005;SDS011;63553;51.814;4.600;2023-06-14T02:20:07;3.65;;;2.42;;
75005;SDS011;63553;51.814;4.600;2023-06-14T02:22:33;6.18;;;2.60;;
75005;SDS011;63553;51.814;4.600;2023-06-14T02:24:58;5.83;;;2.67;;
75005;SDS011;63553;51.814;4.600;2023-06-14T02:27:24;4.85;;;2.90;;
75005;SDS011;63553;51.814;4.600;2023-06-14T02:29:49;3.73;;;2.73;;
75005;SDS011;63553;51.814;4.600;2023-06-14T02:32:15;2.97;;;2.67;;
75005;SDS011;63553;51.814;4.600;2023-06-14T02:34:40;4.93;;;2.43;;
75005;SDS011;63553;51.814;4.600;2023-06-14T02:37:06;7.43;;;3.20;;
75005;SDS011;63553;51.814;4.600;2023-06-14T02:39:31;4.93;;;2.80;;
75005;SDS011;63553;51.814;4.600;2023-06-14T02:41:57;4.17;;;2.50;;
75005;SDS011;63553;51.814;4.600;2023-06-14T02:44:25;3.47;;;2.50;;
75005;SDS011;63553;51.814;4.600;2023-06-14T02:46:53;3.70;;;2.53;;
75005;SDS011;63553;51.814;4.600;2023-06-14T02:49:21;6.20;;;2.83;;
75005;SDS011;63553;51.814;4.600;2023-06-14T02:51:47;4.32;;;2.78;;
75005;SDS011;63553;51.814;4.600;2023-06-14T02:54:12;2.40;;;2.20;;
75005;SDS011;63553;51.814;4.600;2023-06-14T02:56:38;2.95;;;2.30;;
75005;SDS011;63553;51.814;4.600;2023-06-14T02:59:03;3.83;;;2.50;;
75005;SDS011;63553;51.814;4.600;2023-06-14T03:01:29;2.70;;;2.20;;
75005;SDS011;63553;51.814;4.600;2023-06-14T03:04:02;3.65;;;2.58;;
75005;SDS011;63553;51.814;4.600;2023-06-14T03:06:28;2.88;;;2.50;;
75005;SDS011;63553;51.814;4.600;2023-06-14T03:08:55;2.63;;;2.25;;
75005;SDS011;63553;51.814;4.600;2023-06-14T03:11:24;2.35;;;2.17;;
75005;SDS011;63553;51.814;4.600;2023-06-14T03:13:50;4.10;;;2.65;;
75005;SDS011;63553;51.814;4.600;2023-06-14T03:16:16;2.63;;;2.42;;
75005;SDS011;63553;51.814;4.600;2023-06-14T03:18:44;3.25;;;2.05;;
75005;SDS011;63553;51.814;4.600;2023-06-14T03:21:10;4.15;;;2.83;;
75005;SDS011;63553;51.814;4.600;2023-06-14T03:23:36;6.20;;;2.50;;
75005;SDS011;63553;51.814;4.600;2023-06-14T03:26:01;2.50;;;2.30;;
75005;SDS011;63553;51.814;4.600;2023-06-14T03:28:26;4.60;;;2.70;;
75005;SDS011;63553;51.814;4.600;2023-06-14T03:30:52;3.95;;;2.63;;
75005;SDS011;63553;51.814;4.600;2023-06-14T03:33:17;3.28;;;2.20;;
75005;SDS011;63553;51.814;4.600;2023-06-14T03:35:43;3.67;;;2.60;;
75005;SDS011;63553;51.814;4.600;2023-06-14T03:38:08;4.55;;;2.40;;
75005;SDS011;63553;51.814;4.600;2023-06-14T03:40:33;2.47;;;2.20;;
75005;SDS011;63553;51.814;4.600;2023-06-14T03:42:59;4.03;;;2.40;;
75005;SDS011;63553;51.814;4.600;2023-06-14T03:45:25;3.05;;;2.33;;
75005;SDS011;63553;51.814;4.600;2023-06-14T03:47:50;4.57;;;2.88;;
75005;SDS011;63553;51.814;4.600;2023-06-14T03:50:17;2.50;;;2.28;;
75005;SDS011;63553;51.814;4.600;2023-06-14T03:52:43;3.55;;;3.10;;
75005;SDS011;63553;51.814;4.600;2023-06-14T03:55:08;3.67;;;2.53;;
75005;SDS011;63553;51.814;4.600;2023-06-14T03:57:35;5.63;;;2.65;;
75005;SDS011;63553;51.814;4.600;2023-06-14T04:00:00;2.60;;;2.30;;
75005;SDS011;63553;51.814;4.600;2023-06-14T04:02:26;5.25;;;2.72;;
75005;SDS011;63553;51.814;4.600;2023-06-14T04:04:53;3.03;;;2.60;;
75005;SDS011;63553;51.814;4.600;2023-06-14T04:07:19;5.75;;;2.00;;
75005;SDS011;63553;51.814;4.600;2023-06-14T04:09:45;4.28;;;2.78;;
75005;SDS011;63553;51.814;4.600;2023-06-14T04:12:11;3.30;;;2.85;;
75005;SDS011;63553;51.814;4.600;2023-06-14T04:14:37;2.78;;;2.38;;
75005;SDS011;63553;51.814;4.600;2023-06-14T04:17:03;4.05;;;2.50;;
75005;SDS011;63553;51.814;4.600;2023-06-14T04:19:29;3.38;;;2.50;;
75005;SDS011;63553;51.814;4.600;2023-06-14T04:21:54;4.17;;;2.60;;
75005;SDS011;63553;51.814;4.600;2023-06-14T04:24:19;2.95;;;2.60;;
75005;SDS011;63553;51.814;4.600;2023-06-14T04:26:45;4.47;;;2.65;;
75005;SDS011;63553;51.814;4.600;2023-06-14T04:29:12;3.47;;;2.55;;
75005;SDS011;63553;51.814;4.600;2023-06-14T04:31:41;15.63;;;2.90;;
75005;SDS011;63553;51.814;4.600;2023-06-14T04:34:07;4.38;;;2.85;;
75005;SDS011;63553;51.814;4.600;2023-06-14T04:36:33;4.85;;;2.50;;
75005;SDS011;63553;51.814;4.600;2023-06-14T04:39:16;5.13;;;3.00;;
75005;SDS011;63553;51.814;4.600;2023-06-14T04:41:45;6.05;;;2.75;;
75005;SDS011;63553;51.814;4.600;2023-06-14T04:44:11;5.32;;;2.85;;
75005;SDS011;63553;51.814;4.600;2023-06-14T04:46:37;6.75;;;2.63;;
75005;SDS011;63553;51.814;4.600;2023-06-14T04:49:14;7.07;;;2.67;;
75005;SDS011;63553;51.814;4.600;2023-06-14T04:51:40;3.55;;;2.38;;
75005;SDS011;63553;51.814;4.600;2023-06-14T04:54:07;5.82;;;3.05;;
75005;SDS011;63553;51.814;4.600;2023-06-14T04:56:38;3.95;;;2.22;;
75005;SDS011;63553;51.814;4.600;2023-06-14T04:59:03;7.65;;;2.95;;
75005;SDS011;63553;51.814;4.600;2023-06-14T05:01:32;5.85;;;2.90;;
75005;SDS011;63553;51.814;4.600;2023-06-14T05:03:58;3.53;;;2.75;;
75005;SDS011;63553;51.814;4.600;2023-06-14T05:06:24;3.90;;;2.65;;
75005;SDS011;63553;51.814;4.600;2023-06-14T05:08:49;4.07;;;2.88;;
75005;SDS011;63553;51.814;4.600;2023-06-14T05:11:15;4.18;;;2.72;;
75005;SDS011;63553;51.814;4.600;2023-06-14T05:13:42;4.07;;;2.72;;
75005;SDS011;63553;51.814;4.600;2023-06-14T05:16:08;6.00;;;2.95;;
75005;SDS011;63553;51.814;4.600;2023-06-14T05:18:34;5.88;;;2.92;;
75005;SDS011;63553;51.814;4.600;2023-06-14T05:21:00;5.18;;;2.70;;
75005;SDS011;63553;51.814;4.600;2023-06-14T05:23:26;6.03;;;2.72;;
75005;SDS011;63553;51.814;4.600;2023-06-14T05:25:51;4.72;;;2.95;;
75005;SDS011;63553;51.814;4.600;2023-06-14T05:28:16;6.68;;;2.92;;
75005;SDS011;63553;51.814;4.600;2023-06-14T05:30:42;3.77;;;3.00;;
75005;SDS011;63553;51.814;4.600;2023-06-14T05:33:07;5.63;;;2.63;;
75005;SDS011;63553;51.814;4.600;2023-06-14T05:35:33;30.27;;;7.85;;
75005;SDS011;63553;51.814;4.600;2023-06-14T05:37:58;4.18;;;3.08;;
75005;SDS011;63553;51.814;4.600;2023-06-14T05:40:23;3.50;;;2.60;;
75005;SDS011;63553;51.814;4.600;2023-06-14T05:42:48;8.73;;;4.20;;
75005;SDS011;63553;51.814;4.600;2023-06-14T05:45:14;8.43;;;3.30;;
75005;SDS011;63553;51.814;4.600;2023-06-14T05:47:41;7.53;;;2.90;;
75005;SDS011;63553;51.814;4.600;2023-06-14T05:50:06;4.20;;;2.78;;
75005;SDS011;63553;51.814;4.600;2023-06-14T05:52:33;5.97;;;2.75;;
75005;SDS011;63553;51.814;4.600;2023-06-14T05:54:59;7.05;;;2.90;;
75005;SDS011;63553;51.814;4.600;2023-06-14T05:57:25;4.33;;;3.00;;
75005;SDS011;63553;51.814;4.600;2023-06-14T05:59:50;5.47;;;3.10;;
75005;SDS011;63553;51.814;4.600;2023-06-14T06:02:16;5.25;;;2.85;;
75005;SDS011;63553;51.814;4.600;2023-06-14T06:04:41;8.00;;;3.08;;
75005;SDS011;63553;51.814;4.600;2023-06-14T06:07:07;3.10;;;2.85;;
75005;SDS011;63553;51.814;4.600;2023-06-14T06:09:32;5.93;;;3.00;;
75005;SDS011;63553;51.814;4.600;2023-06-14T06:11:57;6.13;;;3.13;;
75005;SDS011;63553;51.814;4.600;2023-06-14T06:14:23;3.13;;;2.90;;
75005;SDS011;63553;51.814;4.600;2023-06-14T06:16:48;3.13;;;2.83;;
75005;SDS011;63553;51.814;4.600;2023-06-14T06:19:14;3.50;;;3.20;;
75005;SDS011;63553;51.814;4.600;2023-06-14T06:21:39;3.72;;;2.70;;
75005;SDS011;63553;51.814;4.600;2023-06-14T06:24:05;9.60;;;3.03;;
75005;SDS011;63553;51.814;4.600;2023-06-14T06:26:31;6.38;;;2.90;;
75005;SDS011;63553;51.814;4.600;2023-06-14T06:28:57;4.70;;;2.70;;
75005;SDS011;63553;51.814;4.600;2023-06-14T06:31:23;4.45;;;2.97;;
75005;SDS011;63553;51.814;4.600;2023-06-14T06:33:49;7.70;;;3.28;;
75005;SDS011;63553;51.814;4.600;2023-06-14T06:36:15;9.85;;;3.10;;
75005;SDS011;63553;51.814;4.600;2023-06-14T06:38:40;3.58;;;2.83;;
75005;SDS011;63553;51.814;4.600;2023-06-14T06:41:06;3.60;;;3.08;;
75005;SDS011;63553;51.814;4.600;2023-06-14T06:43:31;3.27;;;2.93;;
75005;SDS011;63553;51.814;4.600;2023-06-14T06:45:56;5.07;;;3.00;;
75005;SDS011;63553;51.814;4.600;2023-06-14T06:48:22;2.83;;;2.53;;
75005;SDS011;63553;51.814;4.600;2023-06-14T06:50:47;3.63;;;3.17;;
75005;SDS011;63553;51.814;4.600;2023-06-14T06:53:12;10.00;;;3.45;;
75005;SDS011;63553;51.814;4.600;2023-06-14T06:55:38;4.03;;;2.72;;
75005;SDS011;63553;51.814;4.600;2023-06-14T06:58:03;4.87;;;2.70;;
75005;SDS011;63553;51.814;4.600;2023-06-14T07:00:30;5.28;;;2.88;;
75005;SDS011;63553;51.814;4.600;2023-06-14T07:02:55;5.57;;;2.90;;
75005;SDS011;63553;51.814;4.600;2023-06-14T07:05:22;5.70;;;3.42;;
75005;SDS011;63553;51.814;4.600;2023-06-14T07:07:47;4.80;;;3.03;;
75005;SDS011;63553;51.814;4.600;2023-06-14T07:10:13;3.85;;;3.30;;
75005;SDS011;63553;51.814;4.600;2023-06-14T07:12:38;6.87;;;3.10;;
75005;SDS011;63553;51.814;4.600;2023-06-14T07:15:05;7.00;;;3.30;;
75005;SDS011;63553;51.814;4.600;2023-06-14T07:17:32;3.53;;;3.22;;
75005;SDS011;63553;51.814;4.600;2023-06-14T07:19:58;4.22;;;3.33;;
75005;SDS011;63553;51.814;4.600;2023-06-14T07:22:24;8.85;;;3.38;;
75005;SDS011;63553;51.814;4.600;2023-06-14T07:24:49;8.33;;;2.80;;
75005;SDS011;63553;51.814;4.600;2023-06-14T07:27:14;9.17;;;3.10;;
75005;SDS011;63553;51.814;4.600;2023-06-14T07:29:40;6.00;;;3.58;;
75005;SDS011;63553;51.814;4.600;2023-06-14T07:32:05;3.83;;;3.42;;
75005;SDS011;63553;51.814;4.600;2023-06-14T07:34:31;3.05;;;2.78;;
75005;SDS011;63553;51.814;4.600;2023-06-14T07:36:56;3.20;;;2.85;;
75005;SDS011;63553;51.814;4.600;2023-06-14T07:39:22;4.15;;;3.55;;
75005;SDS011;63553;51.814;4.600;2023-06-14T07:41:48;3.75;;;3.30;;
75005;SDS011;63553;51.814;4.600;2023-06-14T07:44:13;7.80;;;3.47;;
75005;SDS011;63553;51.814;4.600;2023-06-14T07:46:38;7.57;;;3.77;;
75005;SDS011;63553;51.814;4.600;2023-06-14T07:49:04;6.65;;;3.38;;
75005;SDS011;63553;51.814;4.600;2023-06-14T07:51:30;3.63;;;2.95;;
75005;SDS011;63553;51.814;4.600;2023-06-14T07:53:55;6.53;;;3.13;;
75005;SDS011;63553;51.814;4.600;2023-06-14T07:56:21;4.90;;;3.50;;
75005;SDS011;63553;51.814;4.600;2023-06-14T07:58:46;6.63;;;3.30;;
75005;SDS011;63553;51.814;4.600;2023-06-14T08:01:12;5.30;;;3.40;;
75005;SDS011;63553;51.814;4.600;2023-06-14T08:03:38;5.97;;;3.40;;
75005;SDS011;63553;51.814;4.600;2023-06-14T08:06:03;6.35;;;3.30;;
75005;SDS011;63553;51.814;4.600;2023-06-14T08:08:29;3.90;;;3.38;;
75005;SDS011;63553;51.814;4.600;2023-06-14T08:10:55;4.25;;;3.20;;
75005;SDS011;63553;51.814;4.600;2023-06-14T08:13:20;3.95;;;3.20;;
75005;SDS011;63553;51.814;4.600;2023-06-14T08:15:46;6.03;;;3.40;;
75005;SDS011;63553;51.814;4.600;2023-06-14T08:18:11;5.47;;;3.60;;
75005;SDS011;63553;51.814;4.600;2023-06-14T08:20:36;6.27;;;3.27;;
75005;SDS011;63553;51.814;4.600;2023-06-14T08:23:02;3.97;;;2.85;;
75005;SDS011;63553;51.814;4.600;2023-06-14T08:25:29;4.65;;;3.10;;
75005;SDS011;63553;51.814;4.600;2023-06-14T08:27:55;5.65;;;3.55;;
75005;SDS011;63553;51.814;4.600;2023-06-14T08:30:21;4.65;;;3.50;;
75005;SDS011;63553;51.814;4.600;2023-06-14T08:32:46;4.82;;;3.00;;
75005;SDS011;63553;51.814;4.600;2023-06-14T08:35:11;7.27;;;3.50;;
75005;SDS011;63553;51.814;4.600;2023-06-14T08:37:40;4.47;;;3.35;;
75005;SDS011;63553;51.814;4.600;2023-06-14T08:40:27;6.35;;;3.38;;
75005;SDS011;63553;51.814;4.600;2023-06-14T08:42:54;3.40;;;3.15;;
75005;SDS011;63553;51.814;4.600;2023-06-14T08:45:20;6.38;;;2.88;;
75005;SDS011;63553;51.814;4.600;2023-06-14T08:47:47;6.90;;;3.50;;
75005;SDS011;63553;51.814;4.600;2023-06-14T08:50:19;4.95;;;3.05;;
75005;SDS011;63553;51.814;4.600;2023-06-14T08:52:46;7.05;;;3.15;;
75005;SDS011;63553;51.814;4.600;2023-06-14T08:55:18;3.42;;;3.03;;
75005;SDS011;63553;51.814;4.600;2023-06-14T08:57:44;5.40;;;3.58;;
75005;SDS011;63553;51.814;4.600;2023-06-14T09:00:13;5.32;;;2.85;;
75005;SDS011;63553;51.814;4.600;2023-06-14T09:02:39;9.30;;;2.92;;
75005;SDS011;63553;51.814;4.600;2023-06-14T09:05:11;5.05;;;3.10;;
75005;SDS011;63553;51.814;4.600;2023-06-14T09:10:07;5.95;;;3.22;;
75005;SDS011;63553;51.814;4.600;2023-06-14T09:12:36;6.05;;;3.25;;
75005;SDS011;63553;51.814;4.600;2023-06-14T09:15:03;6.03;;;3.35;;
75005;SDS011;63553;51.814;4.600;2023-06-14T09:17:40;3.55;;;3.15;;
75005;SDS011;63553;51.814;4.600;2023-06-14T09:20:06;4.50;;;3.08;;
75005;SDS011;63553;51.814;4.600;2023-06-14T09:22:42;4.45;;;3.10;;
75005;SDS011;63553;51.814;4.600;2023-06-14T09:25:07;6.63;;;2.88;;
75005;SDS011;63553;51.814;4.600;2023-06-14T09:27:33;3.70;;;3.20;;
75005;SDS011;63553;51.814;4.600;2023-06-14T09:29:58;5.18;;;2.92;;
75005;SDS011;63553;51.814;4.600;2023-06-14T09:32:24;2.90;;;2.67;;
75005;SDS011;63553;51.814;4.600;2023-06-14T09:34:50;3.92;;;3.00;;
75005;SDS011;63553;51.814;4.600;2023-06-14T09:37:29;6.15;;;2.70;;
75005;SDS011;63553;51.814;4.600;2023-06-14T09:39:55;4.25;;;2.60;;
75005;SDS011;63553;51.814;4.600;2023-06-14T09:42:21;2.85;;;2.47;;
75005;SDS011;63553;51.814;4.600;2023-06-14T09:44:47;3.33;;;2.33;;
75005;SDS011;63553;51.814;4.600;2023-06-14T09:47:13;4.63;;;2.80;;
75005;SDS011;63553;51.814;4.600;2023-06-14T09:49:40;5.35;;;2.50;;
75005;SDS011;63553;51.814;4.600;2023-06-14T09:52:06;5.65;;;3.03;;
75005;SDS011;63553;51.814;4.600;2023-06-14T09:54:35;3.00;;;2.55;;
75005;SDS011;63553;51.814;4.600;2023-06-14T09:57:07;5.53;;;2.55;;
75005;SDS011;63553;51.814;4.600;2023-06-14T09:59:33;4.28;;;2.70;;
75005;SDS011;63553;51.814;4.600;2023-06-14T10:02:02;2.70;;;2.45;;
75005;SDS011;63553;51.814;4.600;2023-06-14T10:04:35;23.60;;;3.42;;
75005;SDS011;63553;51.814;4.600;2023-06-14T10:07:01;3.20;;;2.55;;
75005;SDS011;63553;51.814;4.600;2023-06-14T10:09:30;2.67;;;2.38;;
75005;SDS011;63553;51.814;4.600;2023-06-14T10:11:55;5.20;;;2.42;;
75005;SDS011;63553;51.814;4.600;2023-06-14T10:14:21;5.95;;;2.63;;
75005;SDS011;63553;51.814;4.600;2023-06-14T10:19:36;5.70;;;2.78;;
75005;SDS011;63553;51.814;4.600;2023-06-14T10:22:08;2.58;;;2.38;;
75005;SDS011;63553;51.814;4.600;2023-06-14T10:24:40;3.80;;;2.00;;
75005;SDS011;63553;51.814;4.600;2023-06-14T10:27:07;3.33;;;2.10;;
75005;SDS011;63553;51.814;4.600;2023-06-14T10:32:22;3.17;;;2.00;;
75005;SDS011;63553;51.814;4.600;2023-06-14T10:34:56;3.00;;;2.10;;
75005;SDS011;63553;51.814;4.600;2023-06-14T10:37:23;4.10;;;1.80;;
75005;SDS011;63553;51.814;4.600;2023-06-14T10:39:52;4.40;;;2.13;;
75005;SDS011;63553;51.814;4.600;2023-06-14T10:42:18;2.05;;;1.90;;
75005;SDS011;63553;51.814;4.600;2023-06-14T10:44:54;2.47;;;1.92;;
75005;SDS011;63553;51.814;4.600;2023-06-14T10:49:56;2.10;;;1.90;;
75005;SDS011;63553;51.814;4.600;2023-06-14T10:52:29;3.08;;;1.88;;
75005;SDS011;63553;51.814;4.600;2023-06-14T10:55:10;1.83;;;1.73;;
75005;SDS011;63553;51.814;4.600;2023-06-14T10:57:43;1.98;;;1.88;;
75005;SDS011;63553;51.814;4.600;2023-06-14T11:00:23;2.33;;;1.88;;
75005;SDS011;63553;51.814;4.600;2023-06-14T11:05:58;3.47;;;1.88;;
75005;SDS011;63553;51.814;4.600;2023-06-14T11:11:21;1.73;;;1.50;;
75005;SDS011;63553;51.814;4.600;2023-06-14T11:13:48;7.47;;;1.50;;
75005;SDS011;63553;51.814;4.600;2023-06-14T11:16:17;1.70;;;1.60;;
75005;SDS011;63553;51.814;4.600;2023-06-14T11:18:45;1.65;;;1.55;;
75005;SDS011;63553;51.814;4.600;2023-06-14T11:21:11;1.63;;;1.50;;
75005;SDS011;63553;51.814;4.600;2023-06-14T11:23:36;5.45;;;1.50;;
75005;SDS011;63553;51.814;4.600;2023-06-14T11:26:02;1.20;;;1.17;;
75005;SDS011;63553;51.814;4.600;2023-06-14T11:28:36;2.38;;;1.67;;
75005;SDS011;63553;51.814;4.600;2023-06-14T11:31:03;2.60;;;1.60;;
75005;SDS011;63553;51.814;4.600;2023-06-14T11:33:29;4.63;;;1.85;;
75005;SDS011;63553;51.814;4.600;2023-06-14T11:35:54;1.30;;;1.20;;
75005;SDS011;63553;51.814;4.600;2023-06-14T11:38:20;1.50;;;1.40;;
75005;SDS011;63553;51.814;4.600;2023-06-14T11:40:45;3.08;;;1.60;;
75005;SDS011;63553;51.814;4.600;2023-06-14T11:43:10;2.87;;;1.30;;
75005;SDS011;63553;51.814;4.600;2023-06-14T11:45:37;2.25;;;1.50;;
75005;SDS011;63553;51.814;4.600;2023-06-14T11:48:02;1.40;;;1.30;;
75005;SDS011;63553;51.814;4.600;2023-06-14T11:50:28;1.50;;;1.40;;
75005;SDS011;63553;51.814;4.600;2023-06-14T11:52:57;3.95;;;1.30;;
75005;SDS011;63553;51.814;4.600;2023-06-14T11:55:38;2.08;;;1.50;;
75005;SDS011;63553;51.814;4.600;2023-06-14T11:58:04;1.70;;;1.42;;
75005;SDS011;63553;51.814;4.600;2023-06-14T12:00:29;5.03;;;1.42;;
75005;SDS011;63553;51.814;4.600;2023-06-14T12:02:55;1.85;;;1.65;;
75005;SDS011;63553;51.814;4.600;2023-06-14T12:05:22;1.65;;;1.55;;
75005;SDS011;63553;51.814;4.600;2023-06-14T12:07:48;2.88;;;1.50;;
75005;SDS011;63553;51.814;4.600;2023-06-14T12:10:15;2.17;;;1.75;;
75005;SDS011;63553;51.814;4.600;2023-06-14T12:12:41;1.65;;;1.55;;
75005;SDS011;63553;51.814;4.600;2023-06-14T12:15:07;3.60;;;1.42;;
75005;SDS011;63553;51.814;4.600;2023-06-14T12:17:34;1.88;;;1.60;;
75005;SDS011;63553;51.814;4.600;2023-06-14T12:20:06;2.88;;;1.50;;
75005;SDS011;63553;51.814;4.600;2023-06-14T12:22:35;1.65;;;1.40;;
75005;SDS011;63553;51.814;4.600;2023-06-14T12:25:01;1.60;;;1.50;;
75005;SDS011;63553;51.814;4.600;2023-06-14T12:27:28;1.80;;;1.70;;
75005;SDS011;63553;51.814;4.600;2023-06-14T12:30:02;2.05;;;1.60;;
75005;SDS011;63553;51.814;4.600;2023-06-14T12:32:29;1.70;;;1.60;;
75005;SDS011;63553;51.814;4.600;2023-06-14T12:34:55;2.78;;;1.58;;
75005;SDS011;63553;51.814;4.600;2023-06-14T12:37:20;1.80;;;1.70;;
75005;SDS011;63553;51.814;4.600;2023-06-14T12:39:46;4.32;;;1.90;;
75005;SDS011;63553;51.814;4.600;2023-06-14T12:42:11;5.00;;;1.90;;
75005;SDS011;63553;51.814;4.600;2023-06-14T12:44:39;1.83;;;1.73;;
75005;SDS011;63553;51.814;4.600;2023-06-14T12:47:06;1.60;;;1.50;;
75005;SDS011;63553;51.814;4.600;2023-06-14T12:49:32;2.20;;;1.83;;
75005;SDS011;63553;51.814;4.600;2023-06-14T12:51:58;1.65;;;1.55;;
75005;SDS011;63553;51.814;4.600;2023-06-14T12:54:23;2.40;;;1.50;;
75005;SDS011;63553;51.814;4.600;2023-06-14T12:56:50;2.38;;;1.67;;
75005;SDS011;63553;51.814;4.600;2023-06-14T12:59:16;2.80;;;1.60;;
75005;SDS011;63553;51.814;4.600;2023-06-14T13:01:42;2.80;;;1.90;;
75005;SDS011;63553;51.814;4.600;2023-06-14T13:04:07;1.63;;;1.53;;
75005;SDS011;63553;51.814;4.600;2023-06-14T13:06:33;3.92;;;1.60;;
75005;SDS011;63553;51.814;4.600;2023-06-14T13:08:58;2.53;;;1.70;;
75005;SDS011;63553;51.814;4.600;2023-06-14T13:11:24;5.28;;;1.65;;
75005;SDS011;63553;51.814;4.600;2023-06-14T13:13:49;1.98;;;1.60;;
75005;SDS011;63553;51.814;4.600;2023-06-14T13:16:14;1.83;;;1.73;;
75005;SDS011;63553;51.814;4.600;2023-06-14T13:18:40;1.67;;;1.53;;
75005;SDS011;63553;51.814;4.600;2023-06-14T13:21:05;2.50;;;1.53;;
75005;SDS011;63553;51.814;4.600;2023-06-14T13:23:30;2.07;;;1.70;;
75005;SDS011;63553;51.814;4.600;2023-06-14T13:25:56;2.07;;;1.50;;
75005;SDS011;63553;51.814;4.600;2023-06-14T13:28:21;1.77;;;1.67;;
75005;SDS011;63553;51.814;4.600;2023-06-14T13:30:47;1.80;;;1.67;;
75005;SDS011;63553;51.814;4.600;2023-06-14T13:33:12;2.57;;;2.10;;
75005;SDS011;63553;51.814;4.600;2023-06-14T13:35:38;1.65;;;1.55;;
75005;SDS011;63553;51.814;4.600;2023-06-14T13:38:04;1.80;;;1.70;;
75005;SDS011;63553;51.814;4.600;2023-06-14T13:40:29;1.60;;;1.50;;
75005;SDS011;63553;51.814;4.600;2023-06-14T13:42:54;1.87;;;1.53;;
75005;SDS011;63553;51.814;4.600;2023-06-14T13:45:20;2.75;;;1.63;;
75005;SDS011;63553;51.814;4.600;2023-06-14T13:47:45;1.70;;;1.60;;
75005;SDS011;63553;51.814;4.600;2023-06-14T13:50:13;4.40;;;1.92;;
75005;SDS011;63553;51.814;4.600;2023-06-14T13:52:39;2.58;;;1.83;;
75005;SDS011;63553;51.814;4.600;2023-06-14T13:55:05;3.33;;;1.67;;
75005;SDS011;63553;51.814;4.600;2023-06-14T13:57:30;1.30;;;1.30;;
75005;SDS011;63553;51.814;4.600;2023-06-14T13:59:56;1.73;;;1.63;;
75005;SDS011;63553;51.814;4.600;2023-06-14T14:02:26;2.88;;;1.95;;
75005;SDS011;63553;51.814;4.600;2023-06-14T14:04:51;2.33;;;1.90;;
75005;SDS011;63553;51.814;4.600;2023-06-14T14:07:18;1.50;;;1.40;;
75005;SDS011;63553;51.814;4.600;2023-06-14T14:09:45;2.30;;;1.50;;
75005;SDS011;63553;51.814;4.600;2023-06-14T14:12:10;5.10;;;1.58;;
75005;SDS011;63553;51.814;4.600;2023-06-14T14:14:36;4.50;;;1.90;;
75005;SDS011;63553;51.814;4.600;2023-06-14T14:17:02;3.42;;;1.90;;
75005;SDS011;63553;51.814;4.600;2023-06-14T14:19:27;2.08;;;1.92;;
75005;SDS011;63553;51.814;4.600;2023-06-14T14:21:52;21.40;;;8.02;;
75005;SDS011;63553;51.814;4.600;2023-06-14T14:24:18;3.78;;;2.25;;
75005;SDS011;63553;51.814;4.600;2023-06-14T14:26:44;2.95;;;2.65;;
75005;SDS011;63553;51.814;4.600;2023-06-14T14:29:12;3.17;;;1.70;;
75005;SDS011;63553;51.814;4.600;2023-06-14T14:31:37;5.00;;;2.13;;
75005;SDS011;63553;51.814;4.600;2023-06-14T14:34:03;2.60;;;1.83;;
75005;SDS011;63553;51.814;4.600;2023-06-14T14:36:28;1.73;;;1.63;;
75005;SDS011;63553;51.814;4.600;2023-06-14T14:38:53;1.93;;;1.60;;
75005;SDS011;63553;51.814;4.600;2023-06-14T14:41:19;1.80;;;1.70;;
75005;SDS011;63553;51.814;4.600;2023-06-14T14:43:44;1.90;;;1.80;;
75005;SDS011;63553;51.814;4.600;2023-06-14T14:46:10;6.45;;;1.80;;
75005;SDS011;63553;51.814;4.600;2023-06-14T14:48:35;1.77;;;1.67;;
75005;SDS011;63553;51.814;4.600;2023-06-14T14:51:01;3.45;;;1.70;;
75005;SDS011;63553;51.814;4.600;2023-06-14T14:53:27;2.10;;;1.60;;
75005;SDS011;63553;51.814;4.600;2023-06-14T14:55:52;2.63;;;1.77;;
75005;SDS011;63553;51.814;4.600;2023-06-14T14:58:17;3.25;;;1.77;;
75005;SDS011;63553;51.814;4.600;2023-06-14T15:00:46;3.28;;;1.60;;
75005;SDS011;63553;51.814;4.600;2023-06-14T15:03:12;2.40;;;1.90;;
75005;SDS011;63553;51.814;4.600;2023-06-14T15:05:38;2.03;;;1.60;;